Time;durP1;ratioP1;P1;durP2;ratioP2;P2;SDS_P1;SDS_P2;PMS_P1;PMS_P2;Temp;Humidity;BMP_temperature;BMP_pressure;BME280_temperature;BME280_humidity;BME280_pressure;Samples;Min_cycle;Max_cycle;Signal;HPM_P1;HPM_P2
2022/06/03 00:01:37;;;;;;;0.20;0.05;;;;;;;;;;4978983;28;20538;-88
2022/06/03 00:04:09;;;;;;;0.22;0.15;;;;;;;;;;4998495;28;20092;-88
2022/06/03 00:06:53;;;;;;;0.30;0.20;;;;;;;;;;4994343;28;20119;-88
2022/06/03 00:09:22;;;;;;;0.20;0.10;;;;;;;;;;4987156;28;20037;-89
2022/06/03 00:11:51;;;;;;;0.20;0.10;;;;;;;;;;4997517;28;20042;-87
2022/06/03 00:14:36;;;;;;;0.20;0.10;;;;;;;;;;4986413;28;20148;-88
2022/06/03 00:17:03;;;;;;;0.20;0.10;;;;;;;;;;4994933;28;20072;-87
2022/06/03 00:19:42;;;;;;;0.20;0.10;;;;;;;;;;4993983;28;20108;-90
2022/06/03 00:22:17;;;;;;;0.20;0.10;;;;;;;;;;4998744;28;20045;-89
2022/06/03 00:24:46;;;;;;;0.20;0.10;;;;;;;;;;4982820;28;20119;-86
2022/06/03 00:27:33;;;;;;;0.20;0.08;;;;;;;;;;4996777;28;20034;-89
2022/06/03 00:30:18;;;;;;;0.20;0.10;;;;;;;;;;4986641;28;20417;-89
2022/06/03 00:33:11;;;;;;;0.20;0.00;;;;;;;;;;4993630;28;20034;-89
2022/06/03 00:35:37;;;;;;;0.20;0.10;;;;;;;;;;4952699;28;20129;-90
2022/06/03 00:38:22;;;;;;;0.20;0.10;;;;;;;;;;4997819;28;20141;-89
2022/06/03 00:40:52;;;;;;;0.20;0.10;;;;;;;;;;4992769;28;20052;-89
2022/06/03 00:43:37;;;;;;;0.25;0.20;;;;;;;;;;4981208;28;20294;-88
2022/06/03 00:46:21;;;;;;;0.20;0.10;;;;;;;;;;4978489;28;20414;-86
2022/06/03 00:48:51;;;;;;;0.20;0.10;;;;;;;;;;5000202;28;20049;-89
2022/06/03 00:51:23;;;;;;;0.20;0.10;;;;;;;;;;4983001;28;20167;-88
2022/06/03 00:54:19;;;;;;;0.20;0.10;;;;;;;;;;4993126;28;20099;-87
2022/06/03 00:56:53;;;;;;;0.20;0.00;;;;;;;;;;4938365;28;20114;-88
2022/06/03 00:59:38;;;;;;;0.20;0.10;;;;;;;;;;4994694;28;20491;-89
2022/06/03 01:02:04;;;;;;;0.20;0.10;;;;;;;;;;4994947;28;20050;-90
2022/06/03 01:04:43;;;;;;;0.20;0.00;;;;;;;;;;4997972;28;20125;-88
2022/06/03 01:07:15;;;;;;;0.20;0.10;;;;;;;;;;4982632;28;20041;-90
2022/06/03 01:09:50;;;;;;;0.20;0.10;;;;;;;;;;4996759;28;20058;-88
2022/06/03 01:12:24;;;;;;;0.20;0.10;;;;;;;;;;4993347;28;20053;-87
2022/06/03 01:15:13;;;;;;;0.20;0.10;;;;;;;;;;4992831;28;20035;-88
2022/06/03 01:17:51;;;;;;;0.20;0.00;;;;;;;;;;4980572;28;20561;-88
2022/06/03 01:20:20;;;;;;;0.20;0.10;;;;;;;;;;4995280;28;20041;-87
2022/06/03 01:22:53;;;;;;;0.20;0.20;;;;;;;;;;4988506;28;20045;-88
2022/06/03 01:25:28;;;;;;;0.20;0.10;;;;;;;;;;4995861;28;20441;-89
2022/06/03 01:28:10;;;;;;;0.20;0.10;;;;;;;;;;4981697;28;20338;-88
2022/06/03 01:30:55;;;;;;;0.20;0.10;;;;;;;;;;5003250;28;20046;-87
2022/06/03 01:33:44;;;;;;;0.20;0.10;;;;;;;;;;4981156;28;20042;-89
2022/06/03 01:36:29;;;;;;;0.20;0.10;;;;;;;;;;4994410;28;20041;-88
2022/06/03 01:38:55;;;;;;;0.28;0.28;;;;;;;;;;4998836;28;20033;-87
2022/06/03 01:41:40;;;;;;;0.20;0.10;;;;;;;;;;4980238;28;20150;-88
2022/06/03 01:44:21;;;;;;;0.20;0.10;;;;;;;;;;4992669;28;20095;-90
2022/06/03 01:47:07;;;;;;;0.20;0.10;;;;;;;;;;4979463;28;20048;-89
2022/06/03 01:49:51;;;;;;;0.20;0.00;;;;;;;;;;4980364;28;20069;-86
2022/06/03 01:52:36;;;;;;;0.20;0.10;;;;;;;;;;4996571;28;20403;-87
2022/06/03 01:55:22;;;;;;;0.20;0.10;;;;;;;;;;4980985;28;20038;-89
2022/06/03 01:58:12;;;;;;;0.40;0.20;;;;;;;;;;5007589;28;20034;-92
2022/06/03 02:00:41;;;;;;;0.20;0.10;;;;;;;;;;5022703;28;20068;-91
2022/06/03 02:03:30;;;;;;;0.20;0.10;;;;;;;;;;4991006;28;20041;-89
2022/06/03 02:06:15;;;;;;;0.20;0.10;;;;;;;;;;5006473;28;20124;-89
2022/06/03 02:09:00;;;;;;;0.20;0.10;;;;;;;;;;5004547;28;20042;-90
2022/06/03 02:11:29;;;;;;;0.20;0.10;;;;;;;;;;4990581;28;20053;-90
2022/06/03 02:13:59;;;;;;;0.20;0.10;;;;;;;;;;4991444;28;20221;-91
2022/06/03 02:16:44;;;;;;;0.20;0.10;;;;;;;;;;5004836;28;20034;-90
2022/06/03 02:19:25;;;;;;;0.20;0.10;;;;;;;;;;5003341;28;20145;-90
2022/06/03 02:22:11;;;;;;;0.20;0.10;;;;;;;;;;4991157;28;20406;-90
2022/06/03 02:24:47;;;;;;;0.20;0.10;;;;;;;;;;4991718;28;20049;-90
2022/06/03 02:27:32;;;;;;;0.20;0.10;;;;;;;;;;4990907;28;20049;-91
2022/06/03 02:32:45;;;;;;;0.20;0.10;;;;;;;;;;5006921;28;20038;-89
2022/06/03 02:35:12;;;;;;;0.20;0.10;;;;;;;;;;4994839;28;20121;-90
2022/06/03 02:37:48;;;;;;;0.20;0.10;;;;;;;;;;4994659;28;20040;-90
2022/06/03 02:40:42;;;;;;;0.20;0.10;;;;;;;;;;5000298;28;20117;-90
2022/06/03 02:43:14;;;;;;;0.22;0.15;;;;;;;;;;4994509;28;20042;-91
2022/06/03 02:45:59;;;;;;;0.20;0.10;;;;;;;;;;4993239;28;20042;-90
2022/06/03 02:48:44;;;;;;;0.20;0.05;;;;;;;;;;5005808;28;20458;-88
2022/06/03 02:51:30;;;;;;;0.20;0.10;;;;;;;;;;4994149;28;20041;-91
2022/06/03 02:54:09;;;;;;;1.40;0.73;;;;;;;;;;4992631;28;20031;-90
2022/06/03 02:56:35;;;;;;;0.20;0.10;;;;;;;;;;5009138;28;20033;-91
2022/06/03 02:59:13;;;;;;;0.20;0.10;;;;;;;;;;4993443;28;20096;-92
2022/06/03 03:01:39;;;;;;;0.20;0.00;;;;;;;;;;4994822;28;20080;-90
2022/06/03 03:04:31;;;;;;;0.20;0.10;;;;;;;;;;5005232;28;20060;-89
2022/06/03 03:07:16;;;;;;;0.20;0.10;;;;;;;;;;4976534;28;20046;-93
2022/06/03 03:09:46;;;;;;;0.20;0.10;;;;;;;;;;4993715;28;20037;-90
2022/06/03 03:12:12;;;;;;;0.20;0.10;;;;;;;;;;4989268;28;20061;-91
2022/06/03 03:14:41;;;;;;;0.20;0.10;;;;;;;;;;5004934;28;20100;-90
2022/06/03 03:17:17;;;;;;;0.20;0.10;;;;;;;;;;4992664;28;20041;-90
2022/06/03 03:20:04;;;;;;;0.20;0.10;;;;;;;;;;5002390;28;20038;-90
2022/06/03 03:22:46;;;;;;;0.20;0.10;;;;;;;;;;4986438;28;20040;-89
2022/06/03 03:25:28;;;;;;;0.20;0.10;;;;;;;;;;5009002;28;20033;-90
2022/06/03 03:28:09;;;;;;;0.20;0.20;;;;;;;;;;4990610;28;20466;-90
2022/06/03 03:30:37;;;;;;;0.20;0.10;;;;;;;;;;4985720;28;20431;-89
2022/06/03 03:33:07;;;;;;;0.20;0.10;;;;;;;;;;5006210;28;20125;-91
2022/06/03 03:35:46;;;;;;;0.20;0.00;;;;;;;;;;5006432;28;20037;-90
2022/06/03 03:38:31;;;;;;;0.20;0.10;;;;;;;;;;4990735;28;20030;-89
2022/06/03 03:41:03;;;;;;;0.20;0.10;;;;;;;;;;4989725;28;20037;-87
2022/06/03 03:43:48;;;;;;;0.20;0.10;;;;;;;;;;4990964;28;20046;-89
2022/06/03 03:46:14;;;;;;;0.20;0.10;;;;;;;;;;4997344;28;20042;-89
2022/06/03 03:48:53;;;;;;;0.20;0.10;;;;;;;;;;5002427;28;20049;-87
2022/06/03 03:51:35;;;;;;;0.20;0.10;;;;;;;;;;4989810;28;20049;-89
2022/06/03 03:54:19;;;;;;;0.20;0.10;;;;;;;;;;4995777;28;20046;-89
2022/06/03 03:57:04;;;;;;;0.20;0.10;;;;;;;;;;4990678;28;20121;-89
2022/06/03 03:59:36;;;;;;;0.20;0.10;;;;;;;;;;5004556;28;20053;-89
2022/06/03 04:02:20;;;;;;;0.20;0.08;;;;;;;;;;4995486;28;20125;-88
2022/06/03 04:05:05;;;;;;;1.80;1.10;;;;;;;;;;4990618;28;20410;-90
2022/06/03 04:07:51;;;;;;;0.63;0.55;;;;;;;;;;4990542;28;20064;-91
2022/06/03 04:10:37;;;;;;;0.30;0.28;;;;;;;;;;5006587;28;20037;-90
2022/06/03 04:13:16;;;;;;;0.20;0.10;;;;;;;;;;4988651;28;20042;-90
2022/06/03 04:15:51;;;;;;;0.20;0.00;;;;;;;;;;5020844;28;20029;-88
2022/06/03 04:18:35;;;;;;;0.50;0.50;;;;;;;;;;4994752;28;20482;-89
2022/06/03 04:21:07;;;;;;;0.20;0.10;;;;;;;;;;4990879;28;20490;-87
2022/06/03 04:23:46;;;;;;;0.43;0.40;;;;;;;;;;5002982;28;20077;-88
2022/06/03 04:26:31;;;;;;;0.30;0.30;;;;;;;;;;4991314;28;20077;-88
2022/06/03 04:29:06;;;;;;;0.20;0.00;;;;;;;;;;4987552;28;20049;-88
2022/06/03 04:31:35;;;;;;;0.20;0.10;;;;;;;;;;4979809;28;20045;-92
2022/06/03 04:34:11;;;;;;;0.20;0.10;;;;;;;;;;4988113;28;20535;-89
2022/06/03 04:36:38;;;;;;;2.25;0.45;;;;;;;;;;5000351;28;20038;-88
2022/06/03 04:39:22;;;;;;;0.20;0.10;;;;;;;;;;4994032;28;20085;-91
2022/06/03 04:42:07;;;;;;;0.20;0.10;;;;;;;;;;4978367;28;20046;-88
2022/06/03 04:44:42;;;;;;;0.55;0.55;;;;;;;;;;4980032;28;20042;-87
2022/06/03 04:47:27;;;;;;;0.20;0.15;;;;;;;;;;4979466;28;20573;-87
2022/06/03 04:50:12;;;;;;;0.20;0.10;;;;;;;;;;4991511;28;20261;-88
2022/06/03 04:52:38;;;;;;;0.20;0.10;;;;;;;;;;5007159;28;20045;-85
2022/06/03 04:55:16;;;;;;;0.35;0.20;;;;;;;;;;4996691;28;20106;-86
2022/06/03 04:57:48;;;;;;;0.20;0.10;;;;;;;;;;4993607;28;20030;-88
2022/06/03 05:00:33;;;;;;;0.38;0.38;;;;;;;;;;4997180;28;20125;-87
2022/06/03 05:03:02;;;;;;;0.20;0.00;;;;;;;;;;4992494;28;20079;-90
2022/06/03 05:05:29;;;;;;;0.20;0.10;;;;;;;;;;4978244;28;20038;-88
2022/06/03 05:08:21;;;;;;;0.20;0.10;;;;;;;;;;4977614;28;20038;-85
2022/06/03 05:11:03;;;;;;;0.20;0.10;;;;;;;;;;4981964;28;20088;-87
2022/06/03 05:13:52;;;;;;;0.20;0.10;;;;;;;;;;4981250;28;20097;-86
2022/06/03 05:16:37;;;;;;;0.20;0.10;;;;;;;;;;4993129;28;20095;-87
2022/06/03 05:19:22;;;;;;;0.20;0.10;;;;;;;;;;4998437;28;20065;-86
2022/06/03 05:22:05;;;;;;;0.20;0.10;;;;;;;;;;4993887;28;20056;-87
2022/06/03 05:24:47;;;;;;;0.20;0.10;;;;;;;;;;4982099;28;20073;-88
2022/06/03 05:27:19;;;;;;;0.25;0.20;;;;;;;;;;4984734;28;20042;-90
2022/06/03 05:30:11;;;;;;;0.20;0.10;;;;;;;;;;5007429;28;20185;-87
2022/06/03 05:32:47;;;;;;;0.63;0.63;;;;;;;;;;4978129;28;20038;-86
2022/06/03 05:35:27;;;;;;;1.00;0.43;;;12.10;99.90;;;;;;5000867;28;20038;-89
2022/06/03 05:38:12;;;;;;;0.20;0.10;;;;;;;;;;4979769;28;20030;-90
2022/06/03 05:40:44;;;;;;;0.20;0.10;;;;;;;;;;4984435;28;20034;-89
2022/06/03 05:43:29;;;;;;;0.20;0.17;;;;;;;;;;4994050;28;20165;-89
2022/06/03 05:46:14;;;;;;;0.20;0.10;;;;;;;;;;4982933;28;20046;-87
2022/06/03 05:48:40;;;;;;;0.20;0.10;;;;;;;;;;4995173;28;20073;-90
2022/06/03 05:51:06;;;;;;;0.32;0.32;;;;;;;;;;5014835;28;20429;-89
2022/06/03 05:53:40;;;;;;;0.20;0.10;;;;;;;;;;4997204;28;20100;-87
2022/06/03 05:56:16;;;;;;;0.20;0.20;;;;;;;;;;5004655;28;20487;-85
2022/06/03 05:58:49;;;;;;;0.20;0.20;;;;;;;;;;4983401;28;20038;-87
2022/06/03 06:01:15;;;;;;;0.38;0.35;;;;;;;;;;4985304;28;20040;-89
2022/06/03 06:04:02;;;;;;;0.30;0.30;;;;;;;;;;4985934;28;20515;-91
2022/06/03 06:06:36;;;;;;;0.20;0.13;;;;;;;;;;5000333;28;20045;-88
2022/06/03 06:09:21;;;;;;;2.55;0.35;;;;;;;;;;4991107;28;20041;-92
2022/06/03 06:12:02;;;;;;;0.40;0.35;;;;;;;;;;4987403;28;20042;-87
2022/06/03 06:14:57;;;;;;;0.35;0.15;;;;;;;;;;4999182;28;20395;-88
2022/06/03 06:17:24;;;;;;;0.20;0.10;;;;;;;;;;4970952;28;20049;-88
2022/06/03 06:19:54;;;;;;;0.20;0.20;;;;;;;;;;4985217;28;20340;-88
2022/06/03 06:22:23;;;;;;;3.95;1.40;;;;;;;;;;4982009;28;20268;-89
2022/06/03 06:24:56;;;;;;;0.20;0.20;;;;;;;;;;4982137;28;20038;-91
2022/06/03 06:27:41;;;;;;;0.22;0.20;;;;;;;;;;4988787;28;20601;-87
2022/06/03 06:30:27;;;;;;;0.60;0.57;;;;;;;;;;4987830;28;20040;-92
2022/06/03 06:32:53;;;;;;;0.55;0.55;;;;;;;;;;4983219;28;20065;-89
2022/06/03 06:35:38;;;;;;;0.43;0.43;;;;;;;;;;4987399;28;20168;-89
2022/06/03 06:38:04;;;;;;;1.08;0.82;;;;;;;;;;4984703;28;20069;-87
2022/06/03 06:40:43;;;;;;;0.30;0.30;;;;;;;;;;4985515;28;20052;-87
2022/06/03 06:43:11;;;;;;;0.20;0.08;;;;;;;;;;4996915;28;20085;-87
2022/06/03 06:45:46;;;;;;;1.08;0.43;;;;;;;;;;4991570;28;20100;-87
2022/06/03 06:48:22;;;;;;;0.20;0.20;;;;;;;;;;5002733;28;20657;-89
2022/06/03 06:50:55;;;;;;;0.20;0.20;;;;;;;;;;4984944;28;20089;-87
2022/06/03 06:53:45;;;;;;;0.28;0.28;;;;;;;;;;4995126;28;20034;-90
2022/06/03 06:56:34;;;;;;;0.52;0.50;;;;;;;;;;4984617;28;20093;-90
2022/06/03 06:59:02;;;;;;;0.20;0.10;;;;;;;;;;4983457;28;20065;-88
2022/06/03 07:01:43;;;;;;;1.75;0.50;;;;;;;;;;4984574;28;20431;-87
2022/06/03 07:04:14;;;;;;;0.20;0.10;;;;;;;;;;4976652;28;20104;-87
2022/06/03 07:06:57;;;;;;;0.30;0.30;;;;;;;;;;4974128;28;20038;-87
2022/06/03 07:09:26;;;;;;;0.20;0.20;;;;;;;;;;5003217;28;20104;-86
2022/06/03 07:12:11;;;;;;;2.20;1.50;;;;;;;;;;4981869;28;20038;-88
2022/06/03 07:14:45;;;;;;;0.20;0.10;;;;;;;;;;4987145;28;20034;-89
2022/06/03 07:20:16;;;;;;;0.20;0.10;;;;;;;;;;4993189;28;20038;-88
2022/06/03 07:22:52;;;;;;;0.20;0.10;;;;;;;;;;4985049;28;20037;-86
2022/06/03 07:25:32;;;;;;;0.30;0.15;;;;;;;;;;5001072;28;20090;-90
2022/06/03 07:28:15;;;;;;;0.70;0.70;;;;;;;;;;4990638;28;20303;-88
2022/06/03 07:30:47;;;;;;;0.20;0.10;;;;;;;;;;4987341;28;20527;-88
2022/06/03 07:33:14;;;;;;;0.52;0.50;;;;;;;;;;5016308;28;20046;-90
2022/06/03 07:35:51;;;;;;;0.32;0.32;;;;;;;;;;4986819;28;20042;-88
2022/06/03 07:38:21;;;;;;;0.25;0.20;;;;;;;;;;5007573;28;20049;-91
2022/06/03 07:41:00;;;;;;;0.20;0.20;;;;;;;;;;4996507;28;20116;-87
2022/06/03 07:43:39;;;;;;;0.20;0.10;;;;;;;;;;4984800;28;20414;-87
2022/06/03 07:46:12;;;;;;;0.20;0.10;;;;;;;;;;4987142;28;20033;-89
2022/06/03 07:48:39;;;;;;;0.20;0.10;;;;;;;;;;4999881;28;20042;-88
2022/06/03 07:51:23;;;;;;;0.25;0.22;;;11.30;99.90;;;;;;4989258;28;20037;-88
2022/06/03 07:54:12;;;;;;;0.20;0.10;;;16.60;99.90;;;;;;4997609;28;20133;-89
2022/06/03 07:56:41;;;;;;;0.20;0.10;;;16.70;99.90;;;;;;4982140;28;20034;-88
2022/06/03 07:59:29;;;;;;;3.47;0.50;;;;;;;;;;4997313;28;20324;-89
2022/06/03 08:02:15;;;;;;;0.20;0.00;;;;;;;;;;4987886;28;20038;-89
2022/06/03 08:04:41;;;;;;;0.20;0.13;;;;;;;;;;4982254;28;20046;-88
2022/06/03 08:13:07;;;;;;;0.63;0.52;;;;;;;;;;4999738;28;20530;-88
2022/06/03 08:15:35;;;;;;;0.20;0.10;;;;;;;;;;4967888;28;20044;-90
2022/06/03 08:18:05;;;;;;;0.20;0.05;;;;;;;;;;4989411;28;20555;-88
2022/06/03 08:20:34;;;;;;;2.72;0.65;;;;;;;;;;4990276;28;20048;-90
2022/06/03 08:23:02;;;;;;;0.20;0.20;;;;;;;;;;4997506;28;20042;-89
2022/06/03 08:25:29;;;;;;;0.40;0.40;;;;;;;;;;4984476;28;20163;-89
2022/06/03 08:28:02;;;;;;;0.25;0.25;;;;;;;;;;4988410;28;20120;-90
2022/06/03 08:30:29;;;;;;;0.20;0.20;;;;;;;;;;4981552;28;20112;-89
2022/06/03 08:33:06;;;;;;;0.20;0.20;;;;;;;;;;4997836;28;20255;-89
2022/06/03 08:35:34;;;;;;;2.40;0.70;;;;;;;;;;4989293;28;20577;-88
2022/06/03 08:38:04;;;;;;;0.63;0.20;;;;;;;;;;4987416;28;20072;-89
2022/06/03 08:40:41;;;;;;;0.40;0.40;;;;;;;;;;4995745;28;20030;-85
2022/06/03 08:43:32;;;;;;;0.22;0.20;;;;;;;;;;4986102;28;20064;-87
2022/06/03 08:46:07;;;;;;;0.20;0.20;;;;;;;;;;4985759;28;20033;-87
2022/06/03 08:48:49;;;;;;;0.20;0.20;;;;;;;;;;4984088;23;20579;-87
2022/06/03 08:51:35;;;;;;;0.20;0.10;;;;;;;;;;4940997;28;20333;-88
2022/06/03 08:54:14;;;;;;;0.20;0.10;;;;;;;;;;4927935;29;20039;-90
2022/06/03 08:56:44;;;;;;;0.20;0.10;;;;;;;;;;4927985;29;20050;-87
2022/06/03 08:59:17;;;;;;;0.20;0.10;;;16.70;99.90;;;;;;4923018;29;20039;-89
2022/06/03 09:01:59;;;;;;;0.25;0.25;;;18.10;99.90;;;;;;4940212;28;20169;-90
2022/06/03 09:04:32;;;;;;;0.85;0.57;;;18.10;99.90;;;;;;4926486;28;20082;-88
2022/06/03 09:07:17;;;;;;;0.30;0.20;;;18.10;99.90;;;;;;4944567;29;20059;-92
2022/06/03 09:10:07;;;;;;;0.75;0.22;;;18.10;99.90;;;;;;4923786;29;20047;-90
2022/06/03 09:12:32;;;;;;;0.40;0.25;;;18.20;99.90;;;;;;4944584;28;20043;-88
2022/06/03 09:15:11;;;;;;;0.45;0.30;;;18.30;99.90;;;;;;4940950;28;20488;-87
2022/06/03 09:17:51;;;;;;;0.45;0.45;;;18.30;99.90;;;;;;4944122;29;20054;-87
2022/06/03 09:20:21;;;;;;;1.13;0.50;;;18.30;99.90;;;;;;4937921;28;20374;-89
2022/06/03 09:22:50;;;;;;;0.20;0.10;;;18.40;99.90;;;;;;4926102;28;20046;-89
2022/06/03 09:25:18;;;;;;;0.20;0.20;;;18.40;99.90;;;;;;4945257;29;20039;-88
2022/06/03 09:27:48;;;;;;;0.20;0.20;;;18.30;98.60;;;;;;4944067;28;20043;-90
2022/06/03 09:30:26;;;;;;;0.20;0.10;;;18.30;99.90;;;;;;4940700;29;20032;-88
2022/06/03 09:32:52;;;;;;;0.20;0.10;;;18.30;99.90;;;;;;4940525;29;20444;-89
2022/06/03 09:35:23;;;;;;;0.25;0.22;;;18.40;99.90;;;;;;4928189;29;20529;-90
2022/06/03 09:37:55;;;;;;;0.30;0.22;;;;;;;;;;4927970;29;20109;-88
2022/06/03 09:40:25;;;;;;;0.30;0.30;;;;;;;;;;4940034;29;20039;-90
2022/06/03 09:43:14;;;;;;;0.22;0.10;;;;;;;;;;4922405;29;20035;-90
2022/06/03 09:45:52;;;;;;;0.20;0.15;;;;;;;;;;4934712;28;20695;-89
2022/06/03 09:48:20;;;;;;;0.22;0.22;;;;;;;;;;4928980;29;20051;-91
2022/06/03 09:50:52;;;;;;;0.45;0.40;;;;;;;;;;4943554;29;20150;-92
2022/06/03 09:53:23;;;;;;;0.30;0.30;;;;;;;;;;4940442;28;20035;-92
2022/06/03 09:55:54;;;;;;;0.25;0.20;;;;;;;;;;4945421;29;20440;-91
2022/06/03 09:58:23;;;;;;;0.20;0.10;;;;;;;;;;4927778;28;20043;-89
2022/06/03 10:00:51;;;;;;;0.20;0.20;;;;;;;;;;4924277;28;20082;-92
2022/06/03 10:03:26;;;;;;;0.20;0.10;;;;;;;;;;4922675;29;20575;-89
2022/06/03 10:06:04;;;;;;;0.20;0.17;;;;;;;;;;4931142;29;20039;-88
2022/06/03 10:14:08;;;;;;;0.20;0.10;;;19.10;99.20;;;;;;4890509;29;20114;-90
2022/06/03 10:16:34;;;;;;;0.20;0.10;;;19.00;82.10;;;;;;4913011;29;20453;-91
2022/06/03 10:19:00;;;;;;;0.90;0.22;;;19.00;98.40;;;;;;4930484;29;20174;-91
2022/06/03 10:21:28;;;;;;;0.20;0.10;;;;;;;;;;4911199;29;20416;-88
2022/06/03 10:23:56;;;;;;;0.20;0.10;;;;;;;;;;4928577;29;20035;-89
2022/06/03 10:26:24;;;;;;;0.20;0.17;;;19.10;84.70;;;;;;4927539;29;20524;-90
2022/06/03 10:29:04;;;;;;;0.20;0.10;;;19.10;66.90;;;;;;4944259;29;20039;-90
2022/06/03 10:31:36;;;;;;;0.20;0.10;;;19.20;75.20;;;;;;4938914;28;20408;-91
2022/06/03 10:34:11;;;;;;;0.20;0.10;;;19.10;92.40;;;;;;4911376;29;20035;-90
2022/06/03 10:36:43;;;;;;;0.25;0.15;;;19.20;72.80;;;;;;4930194;29;20042;-91
2022/06/03 10:39:17;;;;;;;0.20;0.10;;;19.30;90.10;;;;;;4928409;29;20039;-89
2022/06/03 10:41:58;;;;;;;0.20;0.20;;;19.30;75.60;;;;;;4930538;28;20058;-87
2022/06/03 10:44:33;;;;;;;0.20;0.10;;;19.30;73.60;;;;;;4935151;28;20042;-89
2022/06/03 10:47:12;;;;;;;0.20;0.20;;;19.30;64.50;;;;;;4938012;28;20522;-92
2022/06/03 10:49:56;;;;;;;0.20;0.20;;;19.30;75.30;;;;;;4937594;29;20418;-88
2022/06/03 11:01:46;;;;;;;0.20;0.10;;;19.40;67.80;;;;;;4942537;28;20374;-90
2022/06/03 11:04:41;;;;;;;0.20;0.10;;;19.50;86.30;;;;;;4939282;28;20027;-89
2022/06/03 11:07:30;;;;;;;1.52;0.65;;;;;;;;;;4931462;29;20694;-90
2022/06/03 11:10:01;;;;;;;0.20;0.17;;;;;;;;;;4937264;29;20229;-88
2022/06/03 11:12:31;;;;;;;0.20;0.10;;;;;;;;;;4943859;28;20039;-90
2022/06/03 11:14:57;;;;;;;2.38;0.45;;;;;;;;;;4913056;29;20067;-89
2022/06/03 11:17:42;;;;;;;1.00;0.45;;;;;;;;;;4926116;29;20042;-87
2022/06/03 11:20:19;;;;;;;0.68;0.47;;;;;;;;;;4929513;29;20031;-90
2022/06/03 11:22:45;;;;;;;0.63;0.63;;;;;;;;;;4942344;28;20080;-89
2022/06/03 11:25:25;;;;;;;0.20;0.13;;;;;;;;;;4941254;28;20214;-89
2022/06/03 11:28:00;;;;;;;0.20;0.10;;;;;;;;;;4932772;29;20050;-89
2022/06/03 11:30:26;;;;;;;0.20;0.17;;;;;;;;;;4946090;29;20120;-86
2022/06/03 11:32:55;;;;;;;0.20;0.20;;;;;;;;;;4929947;28;20285;-88
2022/06/03 11:35:39;;;;;;;0.20;0.13;;;;;;;;;;4926711;29;20047;-91
2022/06/03 11:38:24;;;;;;;0.25;0.20;;;;;;;;;;4929915;29;20118;-87
2022/06/03 11:40:54;;;;;;;0.20;0.10;;;;;;;;;;4942669;28;20043;-88
2022/06/03 11:43:32;;;;;;;0.20;0.10;;;;;;;;;;4931181;29;20044;-93
2022/06/03 11:46:02;;;;;;;0.20;0.10;;;;;;;;;;4932762;29;20058;-90
2022/06/03 11:48:43;;;;;;;0.20;0.20;;;;;;;;;;4931644;29;20043;-89
2022/06/03 11:51:10;;;;;;;0.28;0.17;;;;;;;;;;4941383;28;20047;-89
2022/06/03 11:54:05;;;;;;;0.20;0.10;;;;;;;;;;4925992;29;20043;-89
2022/06/03 11:56:42;;;;;;;0.20;0.10;;;;;;;;;;4939581;29;20039;-92
2022/06/03 11:59:14;;;;;;;0.30;0.20;;;;;;;;;;4908264;29;20040;-89
2022/06/03 12:01:53;;;;;;;0.30;0.15;;;;;;;;;;4940964;28;20259;-89
2022/06/03 12:04:38;;;;;;;0.20;0.10;;;;;;;;;;4929359;29;20055;-90
2022/06/03 12:07:18;;;;;;;0.22;0.20;;;;;;;;;;4929877;29;20464;-92
2022/06/03 12:09:53;;;;;;;0.40;0.22;;;;;;;;;;4942209;29;20517;-89
2022/06/03 12:15:39;;;;;;;0.68;0.57;;;;;;;;;;4940789;28;20130;-90
2022/06/03 12:18:12;;;;;;;0.20;0.13;;;;;;;;;;4939078;29;20093;-89
2022/06/03 12:20:38;;;;;;;0.20;0.10;;;;;;;;;;4927787;29;20496;-88
2022/06/03 12:23:13;;;;;;;0.70;0.70;;;;;;;;;;4943239;28;20493;-91
2022/06/03 12:25:51;;;;;;;0.40;0.40;;;;;;;;;;4937743;28;20213;-90
2022/06/03 12:28:37;;;;;;;0.30;0.30;;;;;;;;;;4924089;29;20122;-88
2022/06/03 12:31:08;;;;;;;0.20;0.17;;;;;;;;;;4959190;28;20527;-89
2022/06/03 12:33:40;;;;;;;0.20;0.10;;;;;;;;;;4948400;29;20049;-90
2022/06/03 12:36:25;;;;;;;0.20;0.15;;;;;;;;;;4924635;28;20043;-89
2022/06/03 12:39:03;;;;;;;0.20;0.10;;;;;;;;;;4941929;29;20045;-91
2022/06/03 12:41:44;;;;;;;0.20;0.10;;;;;;;;;;4925898;29;20047;-91
2022/06/03 12:44:29;;;;;;;0.28;0.20;;;;;;;;;;4924707;29;20109;-88
2022/06/03 12:47:21;;;;;;;0.20;0.10;;;;;;;;;;4930080;29;20047;-91
2022/06/03 12:49:50;;;;;;;0.30;0.30;;;;;;;;;;4941393;28;20074;-89
2022/06/03 12:52:22;;;;;;;0.93;0.30;;;;;;;;;;4929956;29;20485;-89
2022/06/03 12:54:48;;;;;;;;;;;;;;;;;;4938758;29;20411;-90
2022/06/03 12:57:23;;;;;;;0.35;0.35;;;;;;;;;;4942789;28;19918;-89
2022/06/03 12:59:52;;;;;;;0.20;0.10;;;;;;;;;;4941606;28;20109;-89
2022/06/03 13:02:21;;;;;;;0.20;0.10;;;;;;;;;;4927075;29;20043;-91
2022/06/03 13:04:53;;;;;;;0.20;0.10;;;;;;;;;;4932704;29;20047;-87
2022/06/03 13:07:19;;;;;;;;;;;;;;;;;;4931757;29;20102;-91
2022/06/03 13:09:49;;;;;;;0.20;0.10;;;;;;;;;;4927013;29;19974;-91
2022/06/03 13:12:21;;;;;;;0.20;0.10;;;;;;;;;;4940051;28;20440;-89
2022/06/03 13:14:47;;;;;;;0.20;0.10;;;;;;;;;;4919052;29;20043;-91
2022/06/03 13:17:35;;;;;;;0.20;0.10;;;;;;;;;;4943403;28;20044;-89
2022/06/03 13:20:02;;;;;;;0.28;0.28;;;;;;;;;;4928208;29;20062;-91
2022/06/03 13:22:30;;;;;;;0.20;0.10;;;;;;;;;;4939547;28;20118;-90
2022/06/03 13:25:37;;;;;;;0.20;0.13;;;;;;;;;;4925448;29;20445;-90
2022/06/03 13:28:14;;;;;;;0.20;0.13;;;;;;;;;;4929005;29;20042;-86
2022/06/03 13:30:43;;;;;;;3.40;0.75;;;;;;;;;;4937469;28;20063;-90
2022/06/03 13:33:21;;;;;;;0.25;0.25;;;;;;;;;;4942471;29;20051;-90
2022/06/03 13:36:02;;;;;;;8.77;0.50;;;;;;;;;;4941586;28;20027;-90
2022/06/03 13:38:42;;;;;;;8.68;0.85;;;;;;;;;;4965792;28;20037;-91
2022/06/03 13:44:10;;;;;;;0.60;0.50;;;;;;;;;;4939577;29;20366;-91
2022/06/03 13:46:55;;;;;;;0.30;0.20;;;;;;;;;;4925218;29;20046;-91
2022/06/03 13:49:26;;;;;;;0.20;0.10;;;;;;;;;;4929594;29;20047;-87
2022/06/03 13:52:11;;;;;;;0.40;0.15;;;22.40;56.00;;;;;;4940128;28;20040;-89
2022/06/03 13:54:37;;;;;;;0.40;0.40;;;;;;;;;;4910015;29;20074;-87
2022/06/03 13:57:11;;;;;;;0.22;0.20;;;22.00;59.90;;;;;;4931652;28;20560;-87
2022/06/03 13:59:41;;;;;;;2.05;0.32;;;21.40;56.70;;;;;;4938784;28;20051;-89
2022/06/03 14:02:34;;;;;;;0.20;0.10;;;;;;;;;;4933935;28;20095;-88
2022/06/03 14:05:36;;;;;;;0.20;0.10;;;21.20;57.40;;;;;;4928352;29;20039;-88
2022/06/03 14:08:21;;;;;;;0.20;0.00;;;21.00;60.40;;;;;;4940755;29;20039;-91
2022/06/03 14:11:05;;;;;;;0.50;0.50;;;21.00;60.30;;;;;;4925746;29;20054;-90
2022/06/03 14:14:08;;;;;;;0.20;0.10;;;21.10;68.50;;;;;;4938432;28;20047;-88
2022/06/03 14:16:39;;;;;;;1.95;0.32;;;;;;;;;;4936271;28;20047;-90
2022/06/03 14:19:08;;;;;;;0.20;0.10;;;21.20;60.40;;;;;;4919216;29;20508;-90
2022/06/03 14:21:46;;;;;;;0.43;0.43;;;21.90;59.40;;;;;;4925921;29;20379;-89
2022/06/03 14:24:17;;;;;;;0.20;0.10;;;21.80;58.50;;;;;;4936901;28;20127;-90
2022/06/03 14:26:59;;;;;;;0.28;0.17;;;21.60;55.70;;;;;;4926927;29;20039;-89
2022/06/03 14:29:32;;;;;;;0.65;0.38;;;21.50;57.20;;;;;;4934618;29;20069;-89
2022/06/03 14:32:09;;;;;;;0.20;0.10;;;21.30;58.00;;;;;;4926157;29;20045;-90
2022/06/03 14:34:39;;;;;;;0.20;0.10;;;21.30;61.60;;;;;;4940016;29;20271;-88
2022/06/03 14:37:10;;;;;;;0.20;0.20;;;;;;;;;;4939758;28;20036;-91
2022/06/03 14:39:45;;;;;;;0.20;0.10;;;21.30;57.80;;;;;;4924942;29;20040;-89
2022/06/03 14:42:29;;;;;;;0.25;0.15;;;21.30;62.10;;;;;;4948690;28;20074;-91
2022/06/03 14:45:05;;;;;;;0.20;0.10;;;21.30;58.30;;;;;;4924592;29;20105;-91
2022/06/03 14:47:49;;;;;;;0.20;0.10;;;21.30;58.60;;;;;;4912898;29;20085;-92
2022/06/03 14:50:32;;;;;;;0.20;0.10;;;21.30;59.80;;;;;;4920696;28;20093;-89
2022/06/03 14:53:23;;;;;;;0.40;0.20;;;21.20;58.50;;;;;;4939803;29;20098;-89
2022/06/03 14:56:26;;;;;;;0.30;0.30;;;21.20;59.20;;;;;;4928672;29;20046;-87
2022/06/03 14:58:56;;;;;;;0.20;0.13;;;21.20;57.80;;;;;;4933982;29;20123;-90
2022/06/03 15:01:25;;;;;;;0.20;0.10;;;21.10;60.10;;;;;;4945457;28;20039;-88
2022/06/03 15:04:08;;;;;;;0.40;0.40;;;;;;;;;;4928138;29;20100;-90
2022/06/03 15:06:38;;;;;;;0.22;0.10;;;;;;;;;;4920395;29;20051;-92
2022/06/03 15:09:10;;;;;;;0.20;0.10;;;;;;;;;;4935035;29;20249;-87
2022/06/03 15:11:45;;;;;;;0.20;0.20;;;21.20;59.40;;;;;;4939093;29;20043;-89
2022/06/03 15:14:19;;;;;;;0.30;0.30;;;21.30;56.80;;;;;;4941198;28;20489;-91
2022/06/03 15:16:58;;;;;;;0.20;0.10;;;21.10;60.40;;;;;;4925873;29;20070;-92
2022/06/03 15:19:44;;;;;;;0.30;0.20;;;21.10;58.30;;;;;;4921094;29;20040;-88
2022/06/03 15:22:19;;;;;;;0.35;0.15;;;21.10;58.50;;;;;;4940038;29;20396;-90
2022/06/03 15:25:04;;;;;;;4.90;0.28;;;21.10;58.70;;;;;;4920929;29;20039;-90
2022/06/03 15:27:58;;;;;;;0.20;0.20;;;21.10;55.80;;;;;;4935970;29;20050;-88
2022/06/03 15:30:54;;;;;;;0.20;0.13;;;21.10;57.00;;;;;;4925130;28;20053;-90
2022/06/03 15:33:39;;;;;;;0.30;0.28;;;21.10;56.60;;;;;;4921243;29;20204;-89
2022/06/03 15:36:17;;;;;;;0.20;0.10;;;21.00;58.90;;;;;;4938357;29;20137;-89
2022/06/03 15:38:49;;;;;;;0.20;0.10;;;20.90;60.30;;;;;;4935303;29;20130;-88
2022/06/03 15:41:28;;;;;;;0.28;0.20;;;20.80;60.70;;;;;;4944868;28;20047;-87
2022/06/03 15:43:56;;;;;;;0.20;0.10;;;20.80;60.80;;;;;;4936768;28;20047;-87
2022/06/03 15:46:41;;;;;;;0.20;0.10;;;20.80;64.40;;;;;;4944937;28;20043;-88